createdAt,value
2018-08-30T00:01:34.862Z,19.70
2018-08-30T00:04:03.273Z,19.70
2018-08-30T00:06:31.899Z,19.60
2018-08-30T00:09:00.864Z,19.60
2018-08-30T00:11:29.216Z,19.60
2018-08-30T00:13:57.789Z,19.60
2018-08-30T00:16:26.189Z,19.50
2018-08-30T00:18:54.553Z,19.50
2018-08-30T00:21:23.056Z,19.50
2018-08-30T00:23:51.493Z,19.50
2018-08-30T00:26:19.971Z,19.50
2018-08-30T00:28:48.302Z,19.40
2018-08-30T00:31:16.701Z,19.40
2018-08-30T00:33:45.197Z,19.30
2018-08-30T00:36:13.557Z,19.30
2018-08-30T00:38:41.916Z,19.30
2018-08-30T00:41:10.612Z,19.30
2018-08-30T00:43:38.936Z,19.20
2018-08-30T00:46:07.330Z,19.20
2018-08-30T00:48:36.019Z,19.10
2018-08-30T00:51:04.383Z,19.10
2018-08-30T00:53:32.737Z,19.10
2018-08-30T00:56:01.917Z,19.10
2018-08-30T00:58:30.288Z,19.10
2018-08-30T01:00:58.630Z,19.00
2018-08-30T01:03:27.173Z,19.00
2018-08-30T01:05:55.520Z,19.00
2018-08-30T01:08:23.867Z,19.00
2018-08-30T01:10:52.380Z,18.90
2018-08-30T01:13:20.796Z,18.90
2018-08-30T01:15:49.185Z,18.90
2018-08-30T01:18:17.732Z,18.90
2018-08-30T01:20:46.117Z,18.90
2018-08-30T01:23:14.516Z,18.90
2018-08-30T01:25:43.053Z,18.90
2018-08-30T01:28:11.475Z,18.80
2018-08-30T01:30:39.864Z,18.80
2018-08-30T01:33:08.468Z,18.80
2018-08-30T01:35:36.812Z,18.80
2018-08-30T01:38:05.365Z,18.80
2018-08-30T01:40:34.016Z,18.80
2018-08-30T01:43:02.604Z,18.80
2018-08-30T01:45:30.964Z,18.80
2018-08-30T01:47:59.313Z,18.80
2018-08-30T01:50:27.683Z,18.80
2018-08-30T01:52:56.207Z,18.80
2018-08-30T01:55:24.620Z,18.80
2018-08-30T01:57:52.984Z,18.70
2018-08-30T02:00:21.532Z,18.70
2018-08-30T02:02:49.888Z,18.70
2018-08-30T02:05:18.313Z,18.70
2018-08-30T02:07:46.960Z,18.70
2018-08-30T02:10:15.337Z,18.70
2018-08-30T02:12:43.684Z,18.70
2018-08-30T02:15:12.139Z,18.60
2018-08-30T02:17:40.621Z,18.60
2018-08-30T02:20:09.184Z,18.60
2018-08-30T02:22:37.644Z,18.60
2018-08-30T02:25:06.212Z,18.50
2018-08-30T02:27:34.673Z,18.50
2018-08-30T02:30:03.289Z,18.40
2018-08-30T02:32:31.685Z,18.40
2018-08-30T02:35:00.069Z,18.40
2018-08-30T02:37:28.496Z,18.30
2018-08-30T02:39:57.056Z,18.30
2018-08-30T02:42:25.416Z,18.20
2018-08-30T02:44:53.777Z,18.20
2018-08-30T02:47:22.356Z,18.20
2018-08-30T02:49:50.754Z,18.10
2018-08-30T02:52:19.113Z,18.10
2018-08-30T02:54:47.760Z,18.10
2018-08-30T02:57:16.097Z,18.00
2018-08-30T02:59:44.479Z,18.00
2018-08-30T03:02:12.946Z,18.00
2018-08-30T03:04:41.628Z,17.90
2018-08-30T03:07:10.021Z,17.90
2018-08-30T03:09:38.420Z,17.80
2018-08-30T03:12:06.968Z,17.80
2018-08-30T03:14:35.384Z,17.80
2018-08-30T03:17:03.804Z,17.80
2018-08-30T03:19:33.408Z,17.80
2018-08-30T03:22:01.809Z,17.80
2018-08-30T03:24:30.143Z,17.70
2018-08-30T03:26:58.709Z,17.70
2018-08-30T03:29:27.064Z,17.70
2018-08-30T03:31:55.440Z,17.70
2018-08-30T03:34:24.001Z,17.70
2018-08-30T03:36:52.391Z,17.60
2018-08-30T03:39:20.836Z,17.60
2018-08-30T03:41:49.220Z,17.60
2018-08-30T03:44:17.611Z,17.60
2018-08-30T03:46:46.301Z,17.60
2018-08-30T03:49:14.654Z,17.60
2018-08-30T03:51:43.289Z,17.60
2018-08-30T03:54:11.869Z,17.60
2018-08-30T03:56:40.405Z,17.60
2018-08-30T03:59:08.821Z,17.60
2018-08-30T04:01:37.193Z,17.70
2018-08-30T04:04:05.668Z,17.70
2018-08-30T04:06:33.996Z,17.70
2018-08-30T04:09:02.618Z,17.70
2018-08-30T04:11:30.985Z,17.70
2018-08-30T04:13:59.333Z,17.70
2018-08-30T04:16:29.029Z,17.80
2018-08-30T04:19:02.660Z,17.70
2018-08-30T04:21:31.297Z,17.70
2018-08-30T04:23:59.861Z,17.70
2018-08-30T04:26:28.496Z,17.70
2018-08-30T04:28:57.212Z,17.70
2018-08-30T04:31:25.700Z,17.70
2018-08-30T04:33:54.084Z,17.80
2018-08-30T04:36:23.040Z,17.80
2018-08-30T04:38:51.554Z,17.80
2018-08-30T04:41:19.939Z,17.80
2018-08-30T04:43:48.541Z,17.80
2018-08-30T04:46:17.077Z,17.80
2018-08-30T04:48:45.871Z,17.80
2018-08-30T04:51:14.485Z,17.80
2018-08-30T04:53:42.971Z,17.80
2018-08-30T04:56:11.528Z,17.80
2018-08-30T04:58:39.997Z,17.80
2018-08-30T05:01:08.401Z,17.80
2018-08-30T05:03:37.112Z,17.90
2018-08-30T05:06:05.604Z,17.90
2018-08-30T05:08:34.894Z,17.90
2018-08-30T05:11:04.588Z,17.80
2018-08-30T05:13:34.356Z,17.80
2018-08-30T05:16:02.795Z,17.80
2018-08-30T05:18:31.684Z,17.80
2018-08-30T05:21:00.072Z,17.70
2018-08-30T05:23:28.601Z,17.70
2018-08-30T05:25:57.197Z,17.70
2018-08-30T05:28:25.572Z,17.70
2018-08-30T05:30:55.653Z,17.70
2018-08-30T05:33:24.261Z,17.70
2018-08-30T05:35:52.677Z,17.70
2018-08-30T05:38:21.093Z,17.70
2018-08-30T05:40:49.884Z,17.70
2018-08-30T05:43:18.254Z,17.60
2018-08-30T05:45:46.914Z,17.70
2018-08-30T05:48:15.556Z,17.60
2018-08-30T05:50:43.997Z,17.60
2018-08-30T05:53:12.371Z,17.70
2018-08-30T05:55:40.963Z,17.70
2018-08-30T05:58:09.328Z,17.70
2018-08-30T06:00:37.700Z,17.70
2018-08-30T06:03:06.305Z,17.70
2018-08-30T06:05:36.162Z,17.70
2018-08-30T06:08:04.577Z,17.70
2018-08-30T06:10:32.936Z,17.70
2018-08-30T06:13:01.339Z,17.70
2018-08-30T06:15:29.852Z,17.70
2018-08-30T06:17:58.397Z,17.80
2018-08-30T06:20:26.777Z,17.80
2018-08-30T06:22:55.150Z,17.80
2018-08-30T06:25:23.781Z,17.80
2018-08-30T06:27:52.249Z,17.90
2018-08-30T06:30:20.744Z,17.90
2018-08-30T06:32:49.212Z,17.90
2018-08-30T06:35:17.516Z,17.90
2018-08-30T06:37:46.214Z,17.90
2018-08-30T06:40:14.563Z,17.80
2018-08-30T06:42:42.943Z,17.80
2018-08-30T06:45:11.528Z,17.80
2018-08-30T06:47:40.037Z,17.80
2018-08-30T06:50:08.435Z,17.80
2018-08-30T06:52:37.243Z,17.80
2018-08-30T06:55:05.614Z,17.70
2018-08-30T06:57:34.029Z,17.70
2018-08-30T07:00:02.644Z,17.60
2018-08-30T07:02:31.009Z,17.70
2018-08-30T07:04:59.401Z,17.60
2018-08-30T07:07:28.073Z,17.70
2018-08-30T07:09:56.477Z,17.70
2018-08-30T07:12:24.909Z,17.70
2018-08-30T07:14:53.327Z,17.70
2018-08-30T07:17:21.687Z,17.70
2018-08-30T07:19:50.228Z,17.70
2018-08-30T07:22:18.596Z,17.70
2018-08-30T07:24:46.990Z,17.70
2018-08-30T07:27:15.832Z,17.60
2018-08-30T07:29:44.441Z,17.60
2018-08-30T07:32:12.824Z,17.70
2018-08-30T07:34:41.245Z,17.70
2018-08-30T07:37:09.697Z,17.70
2018-08-30T07:39:38.337Z,17.70
2018-08-30T07:42:07.838Z,17.70
2018-08-30T07:44:36.254Z,17.70
2018-08-30T07:47:05.342Z,17.70
2018-08-30T07:49:33.992Z,17.80
2018-08-30T07:52:02.344Z,17.80
2018-08-30T07:54:31.026Z,17.80
2018-08-30T07:56:59.644Z,17.90
2018-08-30T07:59:28.048Z,17.90
2018-08-30T08:01:56.746Z,17.90
2018-08-30T08:04:25.934Z,17.90
2018-08-30T08:06:54.616Z,17.90
2018-08-30T08:09:23.328Z,17.90
2018-08-30T08:11:51.900Z,17.80
2018-08-30T08:14:20.922Z,17.90
2018-08-30T08:16:49.906Z,17.80
2018-08-30T08:19:18.416Z,17.90
2018-08-30T08:21:47.139Z,18.00
2018-08-30T08:24:15.662Z,18.00
2018-08-30T08:26:44.182Z,18.00
2018-08-30T08:29:12.926Z,17.90
2018-08-30T08:31:41.967Z,17.90
2018-08-30T08:34:10.553Z,18.00
2018-08-30T08:36:39.481Z,18.00
2018-08-30T08:39:08.502Z,18.10
2018-08-30T08:41:37.322Z,18.20
2018-08-30T08:44:06.165Z,18.30
2018-08-30T08:46:35.413Z,18.30
2018-08-30T08:49:05.372Z,18.40
2018-08-30T08:51:34.448Z,18.40
2018-08-30T08:54:03.235Z,18.40
2018-08-30T08:56:31.784Z,18.50
2018-08-30T08:59:00.586Z,18.50
2018-08-30T09:01:29.203Z,18.60
2018-08-30T09:03:57.495Z,18.70
2018-08-30T09:06:26.156Z,18.70
2018-08-30T09:08:54.525Z,18.70
2018-08-30T09:11:22.914Z,18.70
2018-08-30T09:13:51.300Z,18.70
2018-08-30T09:16:19.918Z,18.60
2018-08-30T09:18:48.457Z,18.60
2018-08-30T09:21:16.836Z,18.60
2018-08-30T09:23:45.540Z,18.70
2018-08-30T09:26:14.004Z,18.70
2018-08-30T09:28:43.093Z,18.70
2018-08-30T09:31:11.561Z,18.70
2018-08-30T09:33:40.174Z,18.80
2018-08-30T09:36:08.528Z,18.80
2018-08-30T09:38:36.944Z,18.90
2018-08-30T09:41:05.592Z,18.90
2018-08-30T09:43:33.964Z,18.90
2018-08-30T09:46:02.552Z,18.90
2018-08-30T09:48:31.216Z,18.90
2018-08-30T09:50:59.703Z,18.90
2018-08-30T09:53:28.458Z,18.90
2018-08-30T09:55:56.893Z,18.80
2018-08-30T09:58:25.639Z,18.80
2018-08-30T10:00:59.422Z,18.80
2018-08-30T10:03:28.088Z,18.70
2018-08-30T10:05:56.653Z,18.80
2018-08-30T10:08:25.024Z,18.80
2018-08-30T10:10:53.712Z,18.90
2018-08-30T10:13:22.061Z,19.00
2018-08-30T10:15:50.458Z,19.20
2018-08-30T10:18:18.912Z,19.20
2018-08-30T10:20:47.356Z,19.30
2018-08-30T10:23:15.705Z,19.30
2018-08-30T10:25:44.214Z,19.30
2018-08-30T10:28:13.633Z,19.30
2018-08-30T10:30:42.012Z,19.30
2018-08-30T10:33:10.552Z,19.30
2018-08-30T10:35:39.234Z,19.30
2018-08-30T10:38:07.812Z,19.30
2018-08-30T10:40:36.405Z,19.20
2018-08-30T10:43:05.206Z,19.20
2018-08-30T10:45:34.174Z,19.20
2018-08-30T10:48:02.803Z,19.20
2018-08-30T10:50:31.380Z,19.20
2018-08-30T10:52:59.727Z,19.20
2018-08-30T10:55:28.518Z,19.30
2018-08-30T10:57:57.135Z,19.30
2018-08-30T11:00:25.752Z,19.20
2018-08-30T11:02:54.156Z,19.10
2018-08-30T11:05:23.247Z,19.00
2018-08-30T11:07:51.722Z,18.90
2018-08-30T11:10:20.112Z,18.80
2018-08-30T11:12:48.812Z,18.70
2018-08-30T11:15:17.190Z,18.60
2018-08-30T11:17:45.758Z,18.50
2018-08-30T11:20:14.556Z,18.50
2018-08-30T11:22:43.893Z,18.60
2018-08-30T11:25:12.519Z,18.60
2018-08-30T11:27:40.880Z,18.70
2018-08-30T11:30:09.298Z,18.80
2018-08-30T11:32:37.845Z,18.80
2018-08-30T11:35:06.437Z,18.80
2018-08-30T11:37:35.276Z,18.70
2018-08-30T11:40:04.004Z,18.70
2018-08-30T11:42:32.456Z,18.80
2018-08-30T11:45:01.304Z,18.80
2018-08-30T11:47:29.904Z,18.80
2018-08-30T11:49:58.289Z,18.80
2018-08-30T11:52:26.715Z,18.70
2018-08-30T11:54:55.352Z,18.70
2018-08-30T11:57:23.868Z,18.60
2018-08-30T11:59:52.444Z,18.50
2018-08-30T12:02:20.990Z,18.40
2018-08-30T12:04:51.016Z,18.40
2018-08-30T12:07:19.411Z,18.30
2018-08-30T12:09:48.605Z,18.30
2018-08-30T12:12:17.388Z,18.30
2018-08-30T12:14:45.940Z,18.30
2018-08-30T12:17:14.409Z,18.30
2018-08-30T12:19:43.036Z,18.30
2018-08-30T12:22:11.415Z,18.40
2018-08-30T12:24:39.980Z,18.40
2018-08-30T12:27:08.600Z,18.20
2018-08-30T12:29:36.976Z,18.20
2018-08-30T12:32:05.416Z,18.20
2018-08-30T12:34:34.142Z,18.20
2018-08-30T12:37:02.509Z,18.20
2018-08-30T12:39:30.919Z,18.20
2018-08-30T12:41:59.400Z,18.30
2018-08-30T12:44:28.022Z,18.40
2018-08-30T12:46:56.425Z,18.50
2018-08-30T12:49:24.806Z,18.60
2018-08-30T12:51:53.513Z,18.60
2018-08-30T12:54:21.925Z,18.50
2018-08-30T12:56:50.297Z,18.30
2018-08-30T12:59:23.222Z,18.20
2018-08-30T13:01:51.772Z,18.00
2018-08-30T13:04:20.116Z,18.00
2018-08-30T13:06:58.199Z,17.90
2018-08-30T13:09:27.866Z,17.90
2018-08-30T13:11:58.438Z,17.90
2018-08-30T13:14:27.093Z,18.00
2018-08-30T13:16:55.678Z,18.10
2018-08-30T13:19:24.586Z,18.10
2018-08-30T13:21:53.029Z,18.00
2018-08-30T13:24:21.686Z,18.00
2018-08-30T13:26:50.235Z,18.00
2018-08-30T13:29:19.012Z,18.00
2018-08-30T13:31:47.399Z,18.00
2018-08-30T13:34:16.318Z,18.10
2018-08-30T13:36:44.676Z,18.20
2018-08-30T13:39:13.783Z,18.20
2018-08-30T13:41:42.704Z,18.30
2018-08-30T13:44:11.779Z,18.30
2018-08-30T13:46:41.082Z,18.40
2018-08-30T13:49:10.431Z,18.50
2018-08-30T13:51:38.526Z,18.60
2018-08-30T13:54:07.185Z,18.70
2018-08-30T13:56:35.907Z,18.70
2018-08-30T13:59:04.527Z,18.80
2018-08-30T14:01:32.714Z,18.90
2018-08-30T14:04:01.244Z,18.80
2018-08-30T14:06:29.594Z,18.80
2018-08-30T14:08:58.009Z,18.80
2018-08-30T14:11:26.807Z,18.80
2018-08-30T14:13:55.441Z,18.80
2018-08-30T14:16:23.524Z,18.90
2018-08-30T14:18:52.410Z,18.90
2018-08-30T14:21:20.747Z,18.80
2018-08-30T14:23:49.092Z,18.80
2018-08-30T14:26:17.634Z,18.80
2018-08-30T14:28:45.996Z,18.80
2018-08-30T14:31:14.426Z,18.90
2018-08-30T14:33:43.041Z,18.90
2018-08-30T14:36:11.505Z,18.90
2018-08-30T14:38:40.070Z,18.90
2018-08-30T14:41:08.672Z,18.90
2018-08-30T14:43:36.936Z,18.90
2018-08-30T14:46:05.361Z,19.00
2018-08-30T14:48:34.110Z,19.00
2018-08-30T14:51:02.617Z,19.00
2018-08-30T14:53:31.218Z,19.10
2018-08-30T14:55:59.652Z,19.20
2018-08-30T14:58:28.028Z,19.20
2018-08-30T15:00:56.465Z,19.10
2018-08-30T15:03:25.116Z,19.10
2018-08-30T15:05:53.617Z,19.00
2018-08-30T15:08:21.863Z,19.10
2018-08-30T15:10:50.401Z,19.10
2018-08-30T15:13:19.572Z,19.10
2018-08-30T15:15:48.008Z,19.10
2018-08-30T15:18:16.664Z,19.20
2018-08-30T15:20:45.133Z,19.20
2018-08-30T15:23:13.691Z,19.20
2018-08-30T15:25:42.235Z,19.30
2018-08-30T15:28:11.765Z,19.30
2018-08-30T15:30:40.485Z,19.30
2018-08-30T15:33:09.221Z,19.30
2018-08-30T15:35:37.655Z,19.40
2018-08-30T15:38:06.165Z,19.40
2018-08-30T15:40:34.875Z,19.50
2018-08-30T15:43:03.828Z,19.50
2018-08-30T15:45:32.278Z,19.50
2018-08-30T15:48:00.861Z,19.50
2018-08-30T15:50:29.316Z,19.60
2018-08-30T15:52:57.869Z,19.60
2018-08-30T15:55:26.571Z,19.70
2018-08-30T15:57:55.036Z,19.70
2018-08-30T16:00:23.736Z,19.70
2018-08-30T16:02:52.165Z,19.70
2018-08-30T16:05:21.301Z,19.70
2018-08-30T16:07:49.992Z,19.70
2018-08-30T16:10:18.423Z,19.70
2018-08-30T16:12:46.889Z,19.70
2018-08-30T16:15:15.349Z,19.70
2018-08-30T16:17:44.043Z,19.70
2018-08-30T16:20:12.815Z,19.70
2018-08-30T16:23:50.498Z,19.70
2018-08-30T16:26:19.101Z,19.70
2018-08-30T16:28:47.680Z,19.60
2018-08-30T16:31:16.366Z,19.50
2018-08-30T16:33:45.053Z,19.40
2018-08-30T16:36:13.637Z,19.30
2018-08-30T16:38:42.217Z,19.20
2018-08-30T16:41:10.677Z,19.10
2018-08-30T16:43:39.994Z,19.00
2018-08-30T16:46:08.764Z,19.00
2018-08-30T16:48:37.267Z,18.90
2018-08-30T16:51:05.728Z,18.90
2018-08-30T16:53:34.281Z,18.80
2018-08-30T16:56:02.942Z,18.70
2018-08-30T16:58:31.348Z,18.60
2018-08-30T17:00:59.948Z,18.50
2018-08-30T17:03:28.287Z,18.50
2018-08-30T17:05:56.676Z,18.40
2018-08-30T17:08:25.405Z,18.30
2018-08-30T17:10:53.893Z,18.20
2018-08-30T17:13:22.295Z,18.10
2018-08-30T17:15:50.772Z,18.00
2018-08-30T17:18:19.344Z,18.00
2018-08-30T17:20:49.978Z,17.90
2018-08-30T17:23:18.370Z,17.80
2018-08-30T17:25:46.923Z,17.70
2018-08-30T17:28:15.577Z,17.60
2018-08-30T17:30:44.667Z,17.60
2018-08-30T17:33:13.224Z,17.50
2018-08-30T17:35:43.031Z,17.50
2018-08-30T17:38:11.520Z,17.40
2018-08-30T17:40:40.491Z,17.40
2018-08-30T17:43:09.520Z,17.40
2018-08-30T17:45:45.053Z,17.30
2018-08-30T17:48:14.015Z,17.30
2018-08-30T17:50:42.563Z,17.30
2018-08-30T17:53:11.391Z,17.20
2018-08-30T17:55:40.581Z,17.20
2018-08-30T17:58:09.220Z,17.10
2018-08-30T18:00:38.046Z,17.10
2018-08-30T18:03:07.081Z,17.00
2018-08-30T18:05:35.881Z,16.90
2018-08-30T18:08:04.763Z,16.80
2018-08-30T18:10:34.235Z,16.80
2018-08-30T18:13:02.844Z,16.70
2018-08-30T18:15:31.269Z,16.70
2018-08-30T18:18:00.262Z,16.70
2018-08-30T18:20:28.848Z,16.60
2018-08-30T18:22:57.351Z,16.60
2018-08-30T18:25:26.313Z,16.60
2018-08-30T18:27:55.051Z,16.60
2018-08-30T18:30:24.000Z,16.50
2018-08-30T18:32:54.489Z,16.40
2018-08-30T18:35:23.046Z,17.50
2018-08-30T18:37:51.685Z,16.40
2018-08-30T18:40:20.321Z,16.40
2018-08-30T18:42:48.726Z,16.40
2018-08-30T18:45:17.425Z,16.30
2018-08-30T18:47:47.792Z,16.30
2018-08-30T18:50:16.555Z,16.20
2018-08-30T18:52:45.320Z,16.20
2018-08-30T18:55:14.524Z,16.10
2018-08-30T18:57:43.084Z,16.10
2018-08-30T19:00:11.589Z,16.10
2018-08-30T19:02:40.304Z,16.10
2018-08-30T19:05:08.829Z,16.00
2018-08-30T19:07:37.636Z,16.00
2018-08-30T19:10:06.507Z,16.00
2018-08-30T19:12:35.393Z,15.90
2018-08-30T19:15:09.255Z,15.90
2018-08-30T19:17:43.193Z,15.90
2018-08-30T19:20:11.998Z,15.80
2018-08-30T19:22:40.623Z,15.80
2018-08-30T19:25:14.089Z,15.70
2018-08-30T19:27:44.181Z,15.70
2018-08-30T19:30:18.625Z,15.60
2018-08-30T19:32:47.150Z,15.50
2018-08-30T19:35:21.417Z,15.50
2018-08-30T19:37:49.964Z,15.50
2018-08-30T19:40:24.112Z,15.50
2018-08-30T19:42:52.706Z,15.40
2018-08-30T19:45:21.386Z,15.40
2018-08-30T19:47:49.805Z,15.40
2018-08-30T19:50:18.504Z,15.40
2018-08-30T19:52:47.194Z,15.30
2018-08-30T19:55:15.668Z,15.30
2018-08-30T19:57:44.085Z,15.30
2018-08-30T20:00:12.794Z,15.20
2018-08-30T20:02:41.296Z,15.20
2018-08-30T20:05:10.105Z,15.20
2018-08-30T20:07:38.712Z,15.20
2018-08-30T20:10:07.568Z,15.10
2018-08-30T20:12:36.073Z,15.20
2018-08-30T20:15:04.746Z,15.10
2018-08-30T20:17:33.472Z,15.10
2018-08-30T20:20:02.009Z,15.00
2018-08-30T20:22:30.589Z,15.00
2018-08-30T20:24:59.320Z,15.00
2018-08-30T20:27:27.740Z,15.00
2018-08-30T20:29:56.644Z,14.90
2018-08-30T20:32:25.420Z,14.90
2018-08-30T20:34:54.594Z,14.90
2018-08-30T20:37:22.980Z,14.90
2018-08-30T20:39:51.576Z,14.80
2018-08-30T20:42:20.057Z,14.80
2018-08-30T20:44:48.460Z,14.80
2018-08-30T20:47:17.017Z,14.80
2018-08-30T20:49:45.401Z,14.80
2018-08-30T20:52:13.912Z,14.70
2018-08-30T20:54:42.321Z,14.70
2018-08-30T20:57:11.004Z,14.70
2018-08-30T20:59:39.537Z,14.70
2018-08-30T21:02:07.936Z,14.60
2018-08-30T21:04:36.554Z,14.60
2018-08-30T21:07:04.964Z,14.60
2018-08-30T21:09:33.436Z,14.60
2018-08-30T21:12:02.050Z,14.50
2018-08-30T21:14:30.408Z,14.50
2018-08-30T21:16:58.748Z,14.50
2018-08-30T21:19:27.356Z,14.50
2018-08-30T21:21:55.757Z,14.50
2018-08-30T21:24:24.896Z,14.40
2018-08-30T21:26:53.783Z,14.40
2018-08-30T21:29:22.185Z,14.40
2018-08-30T21:31:50.605Z,14.40
2018-08-30T21:34:19.336Z,14.40
2018-08-30T21:36:47.722Z,14.40
2018-08-30T21:39:16.093Z,14.30
2018-08-30T21:41:44.726Z,14.30
2018-08-30T21:44:13.131Z,14.30
2018-08-30T21:46:41.984Z,14.20
2018-08-30T21:49:10.549Z,14.20
2018-08-30T21:51:38.926Z,14.30
2018-08-30T21:54:07.441Z,14.20
2018-08-30T21:56:36.069Z,14.20
2018-08-30T21:59:04.428Z,14.20
2018-08-30T22:01:32.854Z,14.20
2018-08-30T22:04:01.470Z,14.10
2018-08-30T22:06:29.847Z,14.10
2018-08-30T22:08:58.261Z,14.10
2018-08-30T22:11:26.807Z,14.10
2018-08-30T22:13:55.298Z,14.00
2018-08-30T22:16:23.767Z,14.00
2018-08-30T22:18:52.425Z,14.00
2018-08-30T22:21:21.100Z,13.90
2018-08-30T22:23:49.492Z,13.90
2018-08-30T22:26:18.140Z,13.90
2018-08-30T22:28:46.545Z,13.80
2018-08-30T22:31:15.204Z,13.80
2018-08-30T22:33:43.751Z,13.80
2018-08-30T22:36:12.157Z,13.80
2018-08-30T22:38:40.608Z,13.80
2018-08-30T22:41:09.385Z,13.80
2018-08-30T22:43:37.736Z,13.70
2018-08-30T22:46:06.097Z,13.70
2018-08-30T22:48:34.493Z,13.70
2018-08-30T22:51:03.104Z,13.60
2018-08-30T22:53:31.633Z,13.60
2018-08-30T22:56:00.329Z,13.60
2018-08-30T22:58:28.908Z,13.50
2018-08-30T23:00:57.288Z,13.60
2018-08-30T23:03:25.724Z,13.50
2018-08-30T23:05:54.320Z,13.50
2018-08-30T23:08:22.724Z,13.50
2018-08-30T23:10:51.197Z,13.50
2018-08-30T23:13:19.772Z,13.40
2018-08-30T23:15:48.223Z,13.40
2018-08-30T23:18:16.577Z,13.40
2018-08-30T23:20:45.304Z,13.40
2018-08-30T23:23:13.681Z,13.30
2018-08-30T23:25:42.375Z,13.30
2018-08-30T23:28:10.984Z,13.30
2018-08-30T23:30:39.466Z,13.30
2018-08-30T23:33:07.808Z,13.30
2018-08-30T23:35:36.362Z,13.30
2018-08-30T23:38:04.724Z,13.30
2018-08-30T23:40:33.306Z,13.20
2018-08-30T23:43:01.648Z,13.20
2018-08-30T23:45:30.085Z,13.20
2018-08-30T23:47:58.484Z,13.20
2018-08-30T23:50:27.159Z,13.20
2018-08-30T23:52:56.050Z,13.20
2018-08-30T23:55:24.415Z,13.10
2018-08-30T23:59:08.028Z,13.10
